KAXN/AXN METAR and TAF weather

Enter ICAO airport designator
Station Type Date Time Source
KAXN METAR 2020/03/29 21:53 UTC NOAA

KAXN 292153Z AUTO 33014G21KT 10SM CLR 12/M07 A2994 RMK AO2 SLP149 T01171072


Station Type Date Time Source
KAXN Decoded METAR 2020/03/29 21:53 UTC NOAA

CHANDLER FIELD, MN, United States (KAXN) 45-52N 095-24W 433M
Mar 29, 2020 - 05:53 PM EDT / 2020.03.29 2153 UTC
Wind: from the NNW (330 degrees) at 16 MPH (14 KT) gusting to 24 MPH (21 KT):0
Visibility: 10 mile(s):0
Sky conditions: clear
Temperature: 53.1 F (11.7 C)
Dew Point: 19.0 F (-7.2 C)
Relative Humidity: 25%
Pressure (altimeter): 29.94 in. Hg (1013 hPa)
ob: KAXN 292153Z AUTO 33014G21KT 10SM CLR 12/M07 A2994 RMK AO2 SLP149 T01171072
cycle: 22

Station Type Date Time Source
KAXN TAF 2020/03/29 18:30 UTC NOAA

TAF KAXN 291729Z 2918/3018 34016G26KT P6SM FEW200
FM300200 36006KT P6SM SKC
FM300500 VRB04KT P6SM SKC
FM301400 12006KT P6SM SKC

Example: see airport list